sensor_id;sensor_type;location;lat;lon;timestamp;P1;durP1;ratioP1;P2;durP2;ratioP2
29774;SDS011;16676;51.202;6.774;2023-02-28T00:01:59;3.78;;;1.65;;
29774;SDS011;16676;51.202;6.774;2023-02-28T00:06:01;5.97;;;1.75;;
29774;SDS011;16676;51.202;6.774;2023-02-28T00:10:05;3.72;;;1.63;;
29774;SDS011;16676;51.202;6.774;2023-02-28T00:14:08;3.78;;;1.60;;
29774;SDS011;16676;51.202;6.774;2023-02-28T00:18:10;3.55;;;1.45;;
29774;SDS011;16676;51.202;6.774;2023-02-28T00:22:13;3.45;;;1.42;;
29774;SDS011;16676;51.202;6.774;2023-02-28T00:26:16;4.22;;;1.52;;
29774;SDS011;16676;51.202;6.774;2023-02-28T00:30:19;2.92;;;1.45;;
29774;SDS011;16676;51.202;6.774;2023-02-28T00:34:23;4.15;;;1.83;;
29774;SDS011;16676;51.202;6.774;2023-02-28T00:38:25;3.08;;;1.27;;
29774;SDS011;16676;51.202;6.774;2023-02-28T00:42:28;3.85;;;1.40;;
29774;SDS011;16676;51.202;6.774;2023-02-28T00:46:30;3.33;;;1.58;;
29774;SDS011;16676;51.202;6.774;2023-02-28T00:50:32;3.03;;;1.20;;
29774;SDS011;16676;51.202;6.774;2023-02-28T00:54:34;4.75;;;1.40;;
29774;SDS011;16676;51.202;6.774;2023-02-28T00:58:37;4.63;;;1.70;;
29774;SDS011;16676;51.202;6.774;2023-02-28T01:02:40;3.90;;;1.27;;
29774;SDS011;16676;51.202;6.774;2023-02-28T01:06:42;3.58;;;1.38;;
29774;SDS011;16676;51.202;6.774;2023-02-28T01:10:44;4.32;;;1.52;;
29774;SDS011;16676;51.202;6.774;2023-02-28T01:14:47;4.93;;;1.50;;
29774;SDS011;16676;51.202;6.774;2023-02-28T01:18:49;2.22;;;1.10;;
29774;SDS011;16676;51.202;6.774;2023-02-28T01:22:51;2.83;;;1.25;;
29774;SDS011;16676;51.202;6.774;2023-02-28T01:26:53;2.83;;;1.42;;
29774;SDS011;16676;51.202;6.774;2023-02-28T01:30:56;3.15;;;1.30;;
29774;SDS011;16676;51.202;6.774;2023-02-28T01:34:58;2.65;;;1.20;;
29774;SDS011;16676;51.202;6.774;2023-02-28T01:39:00;3.45;;;1.45;;
29774;SDS011;16676;51.202;6.774;2023-02-28T01:43:02;3.55;;;1.50;;
29774;SDS011;16676;51.202;6.774;2023-02-28T01:47:05;2.28;;;1.10;;
29774;SDS011;16676;51.202;6.774;2023-02-28T01:51:08;1.98;;;1.30;;
29774;SDS011;16676;51.202;6.774;2023-02-28T01:55:12;3.90;;;1.42;;
29774;SDS011;16676;51.202;6.774;2023-02-28T01:59:18;1.95;;;1.10;;
29774;SDS011;16676;51.202;6.774;2023-02-28T02:03:27;3.00;;;1.10;;
29774;SDS011;16676;51.202;6.774;2023-02-28T02:07:31;2.50;;;1.02;;
29774;SDS011;16676;51.202;6.774;2023-02-28T02:11:36;3.35;;;1.30;;
29774;SDS011;16676;51.202;6.774;2023-02-28T02:15:41;2.40;;;1.25;;
29774;SDS011;16676;51.202;6.774;2023-02-28T02:20:06;2.97;;;1.38;;
29774;SDS011;16676;51.202;6.774;2023-02-28T02:24:48;2.20;;;1.20;;
29774;SDS011;16676;51.202;6.774;2023-02-28T02:29:03;3.22;;;1.23;;
29774;SDS011;16676;51.202;6.774;2023-02-28T02:33:36;3.92;;;1.20;;
29774;SDS011;16676;51.202;6.774;2023-02-28T02:38:05;3.60;;;1.27;;
29774;SDS011;16676;51.202;6.774;2023-02-28T02:42:13;4.53;;;1.65;;
29774;SDS011;16676;51.202;6.774;2023-02-28T02:46:19;2.33;;;1.30;;
29774;SDS011;16676;51.202;6.774;2023-02-28T02:50:26;2.85;;;1.20;;
29774;SDS011;16676;51.202;6.774;2023-02-28T02:54:33;2.17;;;1.00;;
29774;SDS011;16676;51.202;6.774;2023-02-28T02:58:40;2.67;;;1.15;;
29774;SDS011;16676;51.202;6.774;2023-02-28T03:02:44;4.43;;;1.00;;
29774;SDS011;16676;51.202;6.774;2023-02-28T03:06:51;2.80;;;1.20;;
29774;SDS011;16676;51.202;6.774;2023-02-28T03:10:55;2.72;;;1.08;;
29774;SDS011;16676;51.202;6.774;2023-02-28T03:15:03;3.13;;;1.40;;
29774;SDS011;16676;51.202;6.774;2023-02-28T03:19:18;2.45;;;1.10;;
29774;SDS011;16676;51.202;6.774;2023-02-28T03:23:38;2.75;;;1.42;;
29774;SDS011;16676;51.202;6.774;2023-02-28T03:27:48;4.10;;;1.17;;
29774;SDS011;16676;51.202;6.774;2023-02-28T03:32:03;2.67;;;1.00;;
29774;SDS011;16676;51.202;6.774;2023-02-28T03:36:12;2.20;;;1.13;;
29774;SDS011;16676;51.202;6.774;2023-02-28T03:40:19;2.13;;;1.20;;
29774;SDS011;16676;51.202;6.774;2023-02-28T03:44:24;1.93;;;1.27;;
29774;SDS011;16676;51.202;6.774;2023-02-28T03:48:30;3.25;;;1.30;;
29774;SDS011;16676;51.202;6.774;2023-02-28T03:52:39;1.83;;;1.00;;
29774;SDS011;16676;51.202;6.774;2023-02-28T03:56:48;2.63;;;1.23;;
29774;SDS011;16676;51.202;6.774;2023-02-28T04:00:55;2.50;;;1.10;;
29774;SDS011;16676;51.202;6.774;2023-02-28T04:05:00;1.63;;;1.05;;
29774;SDS011;16676;51.202;6.774;2023-02-28T04:09:02;1.38;;;0.82;;
29774;SDS011;16676;51.202;6.774;2023-02-28T04:13:07;2.45;;;1.13;;
29774;SDS011;16676;51.202;6.774;2023-02-28T04:17:09;3.38;;;1.20;;
29774;SDS011;16676;51.202;6.774;2023-02-28T04:21:11;2.00;;;0.82;;
29774;SDS011;16676;51.202;6.774;2023-02-28T04:25:13;2.35;;;1.38;;
29774;SDS011;16676;51.202;6.774;2023-02-28T04:29:20;4.03;;;1.10;;
29774;SDS011;16676;51.202;6.774;2023-02-28T04:33:23;9.38;;;1.33;;
29774;SDS011;16676;51.202;6.774;2023-02-28T04:37:25;1.67;;;0.93;;
29774;SDS011;16676;51.202;6.774;2023-02-28T04:41:29;3.17;;;1.20;;
29774;SDS011;16676;51.202;6.774;2023-02-28T04:45:32;2.20;;;1.27;;
29774;SDS011;16676;51.202;6.774;2023-02-28T04:49:34;2.88;;;1.17;;
29774;SDS011;16676;51.202;6.774;2023-02-28T04:53:36;1.52;;;0.80;;
29774;SDS011;16676;51.202;6.774;2023-02-28T04:57:39;2.17;;;1.05;;
29774;SDS011;16676;51.202;6.774;2023-02-28T05:01:46;1.73;;;1.02;;
29774;SDS011;16676;51.202;6.774;2023-02-28T05:05:48;1.98;;;0.98;;
29774;SDS011;16676;51.202;6.774;2023-02-28T05:09:50;1.90;;;1.00;;
29774;SDS011;16676;51.202;6.774;2023-02-28T05:13:53;2.72;;;1.15;;
29774;SDS011;16676;51.202;6.774;2023-02-28T05:17:56;1.77;;;1.10;;
29774;SDS011;16676;51.202;6.774;2023-02-28T05:21:58;2.05;;;1.30;;
29774;SDS011;16676;51.202;6.774;2023-02-28T05:26:00;2.50;;;1.00;;
29774;SDS011;16676;51.202;6.774;2023-02-28T05:30:02;2.70;;;1.00;;
29774;SDS011;16676;51.202;6.774;2023-02-28T05:34:07;1.88;;;1.20;;
29774;SDS011;16676;51.202;6.774;2023-02-28T05:38:11;2.97;;;1.27;;
29774;SDS011;16676;51.202;6.774;2023-02-28T05:42:13;1.50;;;0.90;;
29774;SDS011;16676;51.202;6.774;2023-02-28T05:46:15;2.28;;;1.10;;
29774;SDS011;16676;51.202;6.774;2023-02-28T05:50:18;2.33;;;1.20;;
29774;SDS011;16676;51.202;6.774;2023-02-28T05:54:20;2.63;;;1.00;;
29774;SDS011;16676;51.202;6.774;2023-02-28T05:58:22;3.83;;;0.90;;
29774;SDS011;16676;51.202;6.774;2023-02-28T06:02:25;1.80;;;1.00;;
29774;SDS011;16676;51.202;6.774;2023-02-28T06:06:29;3.60;;;1.33;;
29774;SDS011;16676;51.202;6.774;2023-02-28T06:10:31;6.47;;;1.23;;
29774;SDS011;16676;51.202;6.774;2023-02-28T06:14:33;6.15;;;1.25;;
29774;SDS011;16676;51.202;6.774;2023-02-28T06:18:36;2.55;;;1.10;;
29774;SDS011;16676;51.202;6.774;2023-02-28T06:22:39;4.57;;;1.10;;
29774;SDS011;16676;51.202;6.774;2023-02-28T06:26:41;3.90;;;1.33;;
29774;SDS011;16676;51.202;6.774;2023-02-28T06:30:43;3.38;;;1.25;;
29774;SDS011;16676;51.202;6.774;2023-02-28T06:34:45;6.05;;;1.13;;
29774;SDS011;16676;51.202;6.774;2023-02-28T06:38:48;2.55;;;1.30;;
29774;SDS011;16676;51.202;6.774;2023-02-28T06:42:54;6.22;;;1.13;;
29774;SDS011;16676;51.202;6.774;2023-02-28T06:46:56;2.85;;;1.10;;
29774;SDS011;16676;51.202;6.774;2023-02-28T06:51:02;2.92;;;1.00;;
29774;SDS011;16676;51.202;6.774;2023-02-28T06:55:07;6.93;;;1.40;;
29774;SDS011;16676;51.202;6.774;2023-02-28T06:59:10;3.72;;;1.30;;
29774;SDS011;16676;51.202;6.774;2023-02-28T07:03:12;3.13;;;1.30;;
29774;SDS011;16676;51.202;6.774;2023-02-28T07:07:15;3.75;;;1.20;;
29774;SDS011;16676;51.202;6.774;2023-02-28T07:11:18;2.10;;;1.10;;
29774;SDS011;16676;51.202;6.774;2023-02-28T07:15:22;2.10;;;1.23;;
29774;SDS011;16676;51.202;6.774;2023-02-28T07:19:24;12.23;;;1.90;;
29774;SDS011;16676;51.202;6.774;2023-02-28T07:23:26;11.88;;;3.03;;
29774;SDS011;16676;51.202;6.774;2023-02-28T07:27:30;6.32;;;2.78;;
29774;SDS011;16676;51.202;6.774;2023-02-28T07:31:32;4.85;;;3.00;;
29774;SDS011;16676;51.202;6.774;2023-02-28T07:35:34;5.88;;;3.33;;
29774;SDS011;16676;51.202;6.774;2023-02-28T07:39:36;7.32;;;2.75;;
29774;SDS011;16676;51.202;6.774;2023-02-28T07:43:39;4.97;;;2.28;;
29774;SDS011;16676;51.202;6.774;2023-02-28T07:47:41;4.47;;;2.30;;
29774;SDS011;16676;51.202;6.774;2023-02-28T07:51:44;4.25;;;1.77;;
29774;SDS011;16676;51.202;6.774;2023-02-28T07:55:46;3.80;;;2.10;;
29774;SDS011;16676;51.202;6.774;2023-02-28T07:59:49;3.10;;;1.42;;
29774;SDS011;16676;51.202;6.774;2023-02-28T08:03:51;4.35;;;1.73;;
29774;SDS011;16676;51.202;6.774;2023-02-28T08:07:54;3.92;;;2.03;;
29774;SDS011;16676;51.202;6.774;2023-02-28T08:11:56;5.15;;;2.13;;
29774;SDS011;16676;51.202;6.774;2023-02-28T08:16:00;3.00;;;1.80;;
29774;SDS011;16676;51.202;6.774;2023-02-28T08:20:03;5.40;;;2.20;;
29774;SDS011;16676;51.202;6.774;2023-02-28T08:24:06;4.25;;;2.35;;
29774;SDS011;16676;51.202;6.774;2023-02-28T08:28:08;4.72;;;2.08;;
29774;SDS011;16676;51.202;6.774;2023-02-28T08:32:12;5.57;;;1.80;;
29774;SDS011;16676;51.202;6.774;2023-02-28T08:36:14;5.03;;;1.88;;
29774;SDS011;16676;51.202;6.774;2023-02-28T08:40:16;4.38;;;1.98;;
29774;SDS011;16676;51.202;6.774;2023-02-28T08:44:19;4.43;;;1.55;;
29774;SDS011;16676;51.202;6.774;2023-02-28T08:48:22;2.55;;;1.73;;
29774;SDS011;16676;51.202;6.774;2023-02-28T08:52:24;3.60;;;1.45;;
29774;SDS011;16676;51.202;6.774;2023-02-28T08:56:27;4.47;;;1.50;;
29774;SDS011;16676;51.202;6.774;2023-02-28T09:00:29;3.88;;;1.70;;
29774;SDS011;16676;51.202;6.774;2023-02-28T09:04:32;8.43;;;1.58;;
29774;SDS011;16676;51.202;6.774;2023-02-28T09:08:35;3.33;;;1.77;;
29774;SDS011;16676;51.202;6.774;2023-02-28T09:12:37;4.00;;;1.55;;
29774;SDS011;16676;51.202;6.774;2023-02-28T09:16:39;4.32;;;1.30;;
29774;SDS011;16676;51.202;6.774;2023-02-28T09:20:42;1.85;;;1.10;;
29774;SDS011;16676;51.202;6.774;2023-02-28T09:24:45;3.17;;;1.20;;
29774;SDS011;16676;51.202;6.774;2023-02-28T09:28:46;2.50;;;1.48;;
29774;SDS011;16676;51.202;6.774;2023-02-28T09:32:49;1.63;;;1.08;;
29774;SDS011;16676;51.202;6.774;2023-02-28T09:36:53;2.47;;;1.30;;
29774;SDS011;16676;51.202;6.774;2023-02-28T09:40:56;4.38;;;1.35;;
29774;SDS011;16676;51.202;6.774;2023-02-28T09:45:02;4.32;;;1.35;;
29774;SDS011;16676;51.202;6.774;2023-02-28T09:49:13;2.05;;;1.13;;
29774;SDS011;16676;51.202;6.774;2023-02-28T09:53:21;3.20;;;1.25;;
29774;SDS011;16676;51.202;6.774;2023-02-28T09:57:32;1.83;;;1.33;;
29774;SDS011;16676;51.202;6.774;2023-02-28T10:01:40;2.83;;;1.27;;
29774;SDS011;16676;51.202;6.774;2023-02-28T10:05:50;2.28;;;1.20;;
29774;SDS011;16676;51.202;6.774;2023-02-28T10:09:57;1.55;;;1.08;;
29774;SDS011;16676;51.202;6.774;2023-02-28T10:14:04;2.95;;;1.25;;
29774;SDS011;16676;51.202;6.774;2023-02-28T10:18:12;2.10;;;1.20;;
29774;SDS011;16676;51.202;6.774;2023-02-28T10:22:17;2.90;;;1.13;;
29774;SDS011;16676;51.202;6.774;2023-02-28T10:26:24;3.83;;;1.08;;
29774;SDS011;16676;51.202;6.774;2023-02-28T10:30:29;1.55;;;0.98;;
29774;SDS011;16676;51.202;6.774;2023-02-28T10:34:32;3.03;;;1.20;;
29774;SDS011;16676;51.202;6.774;2023-02-28T10:38:34;1.60;;;1.10;;
29774;SDS011;16676;51.202;6.774;2023-02-28T10:42:40;1.48;;;1.02;;
29774;SDS011;16676;51.202;6.774;2023-02-28T10:46:42;1.10;;;0.90;;
29774;SDS011;16676;51.202;6.774;2023-02-28T10:50:45;2.10;;;0.98;;
29774;SDS011;16676;51.202;6.774;2023-02-28T10:54:53;3.72;;;1.33;;
29774;SDS011;16676;51.202;6.774;2023-02-28T10:59:26;2.72;;;1.15;;
29774;SDS011;16676;51.202;6.774;2023-02-28T11:03:31;2.08;;;1.05;;
29774;SDS011;16676;51.202;6.774;2023-02-28T11:07:34;2.45;;;1.20;;
29774;SDS011;16676;51.202;6.774;2023-02-28T11:11:41;2.70;;;0.98;;
29774;SDS011;16676;51.202;6.774;2023-02-28T11:15:50;1.77;;;1.05;;
29774;SDS011;16676;51.202;6.774;2023-02-28T11:19:55;2.15;;;1.00;;
29774;SDS011;16676;51.202;6.774;2023-02-28T11:24:00;2.45;;;0.93;;
29774;SDS011;16676;51.202;6.774;2023-02-28T11:28:05;3.42;;;1.08;;
29774;SDS011;16676;51.202;6.774;2023-02-28T11:32:25;1.92;;;1.20;;
29774;SDS011;16676;51.202;6.774;2023-02-28T11:36:30;1.75;;;1.13;;
29774;SDS011;16676;51.202;6.774;2023-02-28T11:40:36;4.13;;;1.00;;
29774;SDS011;16676;51.202;6.774;2023-02-28T11:44:51;2.75;;;0.65;;
29774;SDS011;16676;51.202;6.774;2023-02-28T11:49:06;1.70;;;0.98;;
29774;SDS011;16676;51.202;6.774;2023-02-28T11:53:22;1.57;;;1.00;;
29774;SDS011;16676;51.202;6.774;2023-02-28T11:57:39;2.50;;;1.05;;
29774;SDS011;16676;51.202;6.774;2023-02-28T12:02:00;1.40;;;1.08;;
29774;SDS011;16676;51.202;6.774;2023-02-28T12:06:27;2.03;;;0.95;;
29774;SDS011;16676;51.202;6.774;2023-02-28T12:10:35;1.55;;;1.20;;
29774;SDS011;16676;51.202;6.774;2023-02-28T12:14:50;3.90;;;1.20;;
29774;SDS011;16676;51.202;6.774;2023-02-28T12:19:10;1.65;;;1.00;;
29774;SDS011;16676;51.202;6.774;2023-02-28T12:23:26;1.42;;;0.80;;
29774;SDS011;16676;51.202;6.774;2023-02-28T12:27:45;1.73;;;1.23;;
29774;SDS011;16676;51.202;6.774;2023-02-28T12:31:49;3.03;;;1.27;;
29774;SDS011;16676;51.202;6.774;2023-02-28T12:35:55;2.15;;;1.00;;
29774;SDS011;16676;51.202;6.774;2023-02-28T12:40:01;3.13;;;1.05;;
29774;SDS011;16676;51.202;6.774;2023-02-28T12:44:08;5.38;;;0.82;;
29774;SDS011;16676;51.202;6.774;2023-02-28T12:48:14;1.85;;;1.20;;
29774;SDS011;16676;51.202;6.774;2023-02-28T12:52:22;0.90;;;0.70;;
29774;SDS011;16676;51.202;6.774;2023-02-28T12:56:32;4.25;;;1.05;;
29774;SDS011;16676;51.202;6.774;2023-02-28T13:00:44;1.65;;;0.90;;
29774;SDS011;16676;51.202;6.774;2023-02-28T13:05:05;2.05;;;0.93;;
29774;SDS011;16676;51.202;6.774;2023-02-28T13:09:17;1.63;;;0.93;;
29774;SDS011;16676;51.202;6.774;2023-02-28T13:13:23;2.40;;;0.80;;
29774;SDS011;16676;51.202;6.774;2023-02-28T13:17:29;1.92;;;0.80;;
29774;SDS011;16676;51.202;6.774;2023-02-28T13:21:32;1.52;;;0.82;;
29774;SDS011;16676;51.202;6.774;2023-02-28T13:25:50;3.13;;;1.60;;
29774;SDS011;16676;51.202;6.774;2023-02-28T13:29:56;2.03;;;1.42;;
29774;SDS011;16676;51.202;6.774;2023-02-28T13:38:23;4.95;;;1.58;;
29774;SDS011;16676;51.202;6.774;2023-02-28T13:42:33;6.80;;;1.70;;
29774;SDS011;16676;51.202;6.774;2023-02-28T13:51:28;2.67;;;1.52;;
29774;SDS011;16676;51.202;6.774;2023-02-28T13:55:42;2.50;;;1.70;;
29774;SDS011;16676;51.202;6.774;2023-02-28T13:59:50;4.00;;;1.85;;
29774;SDS011;16676;51.202;6.774;2023-02-28T14:04:14;3.88;;;2.08;;
29774;SDS011;16676;51.202;6.774;2023-02-28T14:08:35;3.60;;;1.60;;
29774;SDS011;16676;51.202;6.774;2023-02-28T14:17:00;3.42;;;1.80;;
29774;SDS011;16676;51.202;6.774;2023-02-28T14:21:11;3.78;;;1.52;;
29774;SDS011;16676;51.202;6.774;2023-02-28T14:25:22;3.03;;;1.90;;
29774;SDS011;16676;51.202;6.774;2023-02-28T14:29:41;2.45;;;1.55;;
29774;SDS011;16676;51.202;6.774;2023-02-28T14:34:17;5.57;;;1.50;;
29774;SDS011;16676;51.202;6.774;2023-02-28T14:38:30;3.70;;;1.70;;
29774;SDS011;16676;51.202;6.774;2023-02-28T14:42:36;4.55;;;1.80;;
29774;SDS011;16676;51.202;6.774;2023-02-28T14:46:42;6.22;;;2.25;;
29774;SDS011;16676;51.202;6.774;2023-02-28T14:50:48;7.35;;;2.03;;
29774;SDS011;16676;51.202;6.774;2023-02-28T14:54:54;6.50;;;2.30;;
29774;SDS011;16676;51.202;6.774;2023-02-28T14:58:57;3.85;;;2.20;;
29774;SDS011;16676;51.202;6.774;2023-02-28T15:03:00;6.47;;;2.35;;
29774;SDS011;16676;51.202;6.774;2023-02-28T15:07:18;5.97;;;2.28;;
29774;SDS011;16676;51.202;6.774;2023-02-28T15:11:23;4.60;;;2.40;;
29774;SDS011;16676;51.202;6.774;2023-02-28T15:15:26;6.47;;;2.40;;
29774;SDS011;16676;51.202;6.774;2023-02-28T15:19:36;3.13;;;1.70;;
29774;SDS011;16676;51.202;6.774;2023-02-28T15:23:44;2.40;;;1.80;;
29774;SDS011;16676;51.202;6.774;2023-02-28T15:27:51;3.23;;;1.57;;
29774;SDS011;16676;51.202;6.774;2023-02-28T15:32:00;6.15;;;1.67;;
29774;SDS011;16676;51.202;6.774;2023-02-28T15:36:05;4.65;;;1.30;;
29774;SDS011;16676;51.202;6.774;2023-02-28T15:40:14;2.67;;;1.40;;
29774;SDS011;16676;51.202;6.774;2023-02-28T15:44:25;2.38;;;1.42;;
29774;SDS011;16676;51.202;6.774;2023-02-28T15:48:30;3.17;;;1.10;;
29774;SDS011;16676;51.202;6.774;2023-02-28T15:52:37;1.98;;;1.00;;
29774;SDS011;16676;51.202;6.774;2023-02-28T15:56:43;2.72;;;1.27;;
29774;SDS011;16676;51.202;6.774;2023-02-28T16:00:59;2.67;;;1.23;;
29774;SDS011;16676;51.202;6.774;2023-02-28T16:09:32;3.95;;;1.33;;
29774;SDS011;16676;51.202;6.774;2023-02-28T16:13:34;2.55;;;1.20;;
29774;SDS011;16676;51.202;6.774;2023-02-28T16:17:38;2.58;;;1.00;;
29774;SDS011;16676;51.202;6.774;2023-02-28T16:21:40;3.53;;;1.02;;
29774;SDS011;16676;51.202;6.774;2023-02-28T16:25:42;9.02;;;1.35;;
29774;SDS011;16676;51.202;6.774;2023-02-28T16:29:46;3.97;;;1.17;;
29774;SDS011;16676;51.202;6.774;2023-02-28T16:33:50;2.58;;;1.15;;
29774;SDS011;16676;51.202;6.774;2023-02-28T16:37:52;3.05;;;1.27;;
29774;SDS011;16676;51.202;6.774;2023-02-28T16:41:54;2.00;;;1.20;;
29774;SDS011;16676;51.202;6.774;2023-02-28T16:45:56;2.75;;;1.05;;
29774;SDS011;16676;51.202;6.774;2023-02-28T16:50:01;1.75;;;1.00;;
29774;SDS011;16676;51.202;6.774;2023-02-28T16:54:02;2.70;;;1.17;;
29774;SDS011;16676;51.202;6.774;2023-02-28T16:58:04;1.90;;;1.00;;
29774;SDS011;16676;51.202;6.774;2023-02-28T17:02:08;1.85;;;1.00;;
29774;SDS011;16676;51.202;6.774;2023-02-28T17:06:17;1.80;;;1.17;;
29774;SDS011;16676;51.202;6.774;2023-02-28T17:10:22;1.55;;;0.95;;
29774;SDS011;16676;51.202;6.774;2023-02-28T17:14:26;1.73;;;1.13;;
29774;SDS011;16676;51.202;6.774;2023-02-28T17:18:28;1.33;;;0.90;;
29774;SDS011;16676;51.202;6.774;2023-02-28T17:22:35;3.85;;;1.23;;
29774;SDS011;16676;51.202;6.774;2023-02-28T17:26:37;9.10;;;1.10;;
29774;SDS011;16676;51.202;6.774;2023-02-28T17:30:40;4.30;;;1.20;;
29774;SDS011;16676;51.202;6.774;2023-02-28T17:34:47;3.40;;;1.07;;
29774;SDS011;16676;51.202;6.774;2023-02-28T17:38:51;3.03;;;1.40;;
29774;SDS011;16676;51.202;6.774;2023-02-28T17:42:53;5.68;;;1.63;;
29774;SDS011;16676;51.202;6.774;2023-02-28T17:46:56;2.78;;;0.93;;
29774;SDS011;16676;51.202;6.774;2023-02-28T17:51:00;5.32;;;1.33;;
29774;SDS011;16676;51.202;6.774;2023-02-28T17:55:03;4.72;;;1.30;;
29774;SDS011;16676;51.202;6.774;2023-02-28T17:59:08;1.73;;;1.00;;
29774;SDS011;16676;51.202;6.774;2023-02-28T18:03:11;4.60;;;1.27;;
29774;SDS011;16676;51.202;6.774;2023-02-28T18:07:13;3.58;;;0.95;;
29774;SDS011;16676;51.202;6.774;2023-02-28T18:11:17;4.35;;;1.10;;
29774;SDS011;16676;51.202;6.774;2023-02-28T18:15:20;4.28;;;1.30;;
29774;SDS011;16676;51.202;6.774;2023-02-28T18:19:23;2.28;;;1.15;;
29774;SDS011;16676;51.202;6.774;2023-02-28T18:23:25;2.40;;;0.98;;
29774;SDS011;16676;51.202;6.774;2023-02-28T18:27:29;3.53;;;1.10;;
29774;SDS011;16676;51.202;6.774;2023-02-28T18:31:31;2.65;;;1.10;;
29774;SDS011;16676;51.202;6.774;2023-02-28T18:35:33;1.33;;;0.95;;
29774;SDS011;16676;51.202;6.774;2023-02-28T18:39:35;3.10;;;1.00;;
29774;SDS011;16676;51.202;6.774;2023-02-28T18:43:38;1.98;;;1.13;;
29774;SDS011;16676;51.202;6.774;2023-02-28T18:47:40;4.57;;;1.20;;
29774;SDS011;16676;51.202;6.774;2023-02-28T18:51:42;3.40;;;1.05;;
29774;SDS011;16676;51.202;6.774;2023-02-28T18:55:44;2.72;;;0.70;;
29774;SDS011;16676;51.202;6.774;2023-02-28T18:59:47;2.90;;;1.10;;
29774;SDS011;16676;51.202;6.774;2023-02-28T19:03:49;1.50;;;1.02;;
29774;SDS011;16676;51.202;6.774;2023-02-28T19:07:51;3.53;;;1.02;;
29774;SDS011;16676;51.202;6.774;2023-02-28T19:11:53;2.90;;;1.05;;
29774;SDS011;16676;51.202;6.774;2023-02-28T19:16:00;2.03;;;0.93;;
29774;SDS011;16676;51.202;6.774;2023-02-28T19:20:04;1.80;;;0.90;;
29774;SDS011;16676;51.202;6.774;2023-02-28T19:24:06;2.75;;;0.88;;
29774;SDS011;16676;51.202;6.774;2023-02-28T19:28:08;4.22;;;0.90;;
29774;SDS011;16676;51.202;6.774;2023-02-28T19:32:11;2.03;;;0.95;;
29774;SDS011;16676;51.202;6.774;2023-02-28T19:36:14;3.13;;;0.90;;
29774;SDS011;16676;51.202;6.774;2023-02-28T19:40:17;2.63;;;0.90;;
29774;SDS011;16676;51.202;6.774;2023-02-28T19:44:18;2.55;;;0.80;;
29774;SDS011;16676;51.202;6.774;2023-02-28T19:48:22;1.65;;;0.90;;
29774;SDS011;16676;51.202;6.774;2023-02-28T19:52:27;3.53;;;1.10;;
29774;SDS011;16676;51.202;6.774;2023-02-28T19:56:28;4.38;;;1.17;;
29774;SDS011;16676;51.202;6.774;2023-02-28T20:00:30;8.25;;;2.17;;
29774;SDS011;16676;51.202;6.774;2023-02-28T20:04:34;16.35;;;5.15;;
29774;SDS011;16676;51.202;6.774;2023-02-28T20:08:36;21.60;;;6.43;;
29774;SDS011;16676;51.202;6.774;2023-02-28T20:12:38;24.55;;;6.95;;
29774;SDS011;16676;51.202;6.774;2023-02-28T20:16:40;32.00;;;7.35;;
29774;SDS011;16676;51.202;6.774;2023-02-28T20:20:44;21.00;;;7.43;;
29774;SDS011;16676;51.202;6.774;2023-02-28T20:25:05;32.08;;;8.10;;
29774;SDS011;16676;51.202;6.774;2023-02-28T20:29:30;23.20;;;7.95;;
29774;SDS011;16676;51.202;6.774;2023-02-28T20:33:51;24.60;;;7.97;;
29774;SDS011;16676;51.202;6.774;2023-02-28T20:38:15;30.33;;;9.10;;
29774;SDS011;16676;51.202;6.774;2023-02-28T20:42:16;34.08;;;9.93;;
29774;SDS011;16676;51.202;6.774;2023-02-28T20:46:19;27.52;;;9.50;;
29774;SDS011;16676;51.202;6.774;2023-02-28T20:50:20;25.77;;;9.40;;
29774;SDS011;16676;51.202;6.774;2023-02-28T20:54:24;30.52;;;10.07;;
29774;SDS011;16676;51.202;6.774;2023-02-28T20:58:28;24.33;;;8.95;;
29774;SDS011;16676;51.202;6.774;2023-02-28T21:02:32;26.23;;;9.30;;
29774;SDS011;16676;51.202;6.774;2023-02-28T21:06:35;24.35;;;8.20;;
29774;SDS011;16676;51.202;6.774;2023-02-28T21:10:39;19.75;;;7.18;;
29774;SDS011;16676;51.202;6.774;2023-02-28T21:14:41;26.90;;;8.65;;
29774;SDS011;16676;51.202;6.774;2023-02-28T21:18:43;22.63;;;7.88;;
29774;SDS011;16676;51.202;6.774;2023-02-28T21:22:46;26.02;;;7.50;;
29774;SDS011;16676;51.202;6.774;2023-02-28T21:26:49;20.70;;;7.70;;
29774;SDS011;16676;51.202;6.774;2023-02-28T21:30:53;24.60;;;8.02;;
29774;SDS011;16676;51.202;6.774;2023-02-28T21:34:55;23.48;;;7.15;;
29774;SDS011;16676;51.202;6.774;2023-02-28T21:38:57;17.75;;;7.10;;
29774;SDS011;16676;51.202;6.774;2023-02-28T21:43:02;18.20;;;7.00;;
29774;SDS011;16676;51.202;6.774;2023-02-28T21:47:04;17.73;;;7.07;;
29774;SDS011;16676;51.202;6.774;2023-02-28T21:51:10;20.48;;;6.75;;
29774;SDS011;16676;51.202;6.774;2023-02-28T21:55:13;15.05;;;6.50;;
29774;SDS011;16676;51.202;6.774;2023-02-28T21:59:17;17.25;;;6.85;;
29774;SDS011;16676;51.202;6.774;2023-02-28T22:03:19;18.38;;;6.43;;
29774;SDS011;16676;51.202;6.774;2023-02-28T22:07:21;17.42;;;6.18;;
29774;SDS011;16676;51.202;6.774;2023-02-28T22:11:23;18.58;;;6.30;;
29774;SDS011;16676;51.202;6.774;2023-02-28T22:15:27;16.25;;;6.50;;
29774;SDS011;16676;51.202;6.774;2023-02-28T22:19:29;14.35;;;5.93;;
29774;SDS011;16676;51.202;6.774;2023-02-28T22:23:31;20.30;;;6.47;;
29774;SDS011;16676;51.202;6.774;2023-02-28T22:27:33;14.73;;;5.82;;
29774;SDS011;16676;51.202;6.774;2023-02-28T22:31:36;18.52;;;6.30;;
29774;SDS011;16676;51.202;6.774;2023-02-28T22:35:38;15.30;;;6.22;;
29774;SDS011;16676;51.202;6.774;2023-02-28T22:39:40;16.48;;;5.50;;
29774;SDS011;16676;51.202;6.774;2023-02-28T22:43:42;13.75;;;5.50;;
29774;SDS011;16676;51.202;6.774;2023-02-28T22:47:47;14.15;;;5.28;;
29774;SDS011;16676;51.202;6.774;2023-02-28T22:51:49;12.13;;;5.18;;
29774;SDS011;16676;51.202;6.774;2023-02-28T22:55:53;16.85;;;6.25;;
29774;SDS011;16676;51.202;6.774;2023-02-28T22:59:55;11.35;;;5.65;;
29774;SDS011;16676;51.202;6.774;2023-02-28T23:03:58;14.45;;;5.47;;
29774;SDS011;16676;51.202;6.774;2023-02-28T23:08:00;12.02;;;5.85;;
29774;SDS011;16676;51.202;6.774;2023-02-28T23:12:02;13.75;;;4.90;;
29774;SDS011;16676;51.202;6.774;2023-02-28T23:16:05;15.00;;;5.38;;
29774;SDS011;16676;51.202;6.774;2023-02-28T23:20:10;16.33;;;5.80;;
29774;SDS011;16676;51.202;6.774;2023-02-28T23:24:14;13.38;;;5.20;;
29774;SDS011;16676;51.202;6.774;2023-02-28T23:28:17;14.40;;;5.32;;
29774;SDS011;16676;51.202;6.774;2023-02-28T23:32:19;13.00;;;5.28;;
29774;SDS011;16676;51.202;6.774;2023-02-28T23:36:22;12.13;;;4.57;;
29774;SDS011;16676;51.202;6.774;2023-02-28T23:40:25;12.23;;;5.22;;
29774;SDS011;16676;51.202;6.774;2023-02-28T23:44:27;12.88;;;4.72;;
29774;SDS011;16676;51.202;6.774;2023-02-28T23:48:29;11.38;;;4.88;;
29774;SDS011;16676;51.202;6.774;2023-02-28T23:52:32;11.52;;;4.43;;
29774;SDS011;16676;51.202;6.774;2023-02-28T23:56:34;11.65;;;4.70;;
